createdAt,value
2023-04-10T00:02:27.261Z,30.27
2023-04-10T00:04:55.308Z,28.07
2023-04-10T00:07:23.234Z,30.00
2023-04-10T00:09:51.056Z,28.33
2023-04-10T00:12:18.856Z,27.37
2023-04-10T00:14:46.671Z,29.17
2023-04-10T00:17:14.426Z,28.33
2023-04-10T00:19:44.061Z,26.17
2023-04-10T00:22:11.905Z,26.80
2023-04-10T00:24:39.725Z,27.70
2023-04-10T00:27:07.745Z,29.93
2023-04-10T00:29:35.523Z,28.57
2023-04-10T00:32:03.463Z,29.87
2023-04-10T00:34:31.649Z,27.80
2023-04-10T00:37:01.244Z,28.83
2023-04-10T00:39:29.302Z,30.73
2023-04-10T00:41:57.616Z,26.20
2023-04-10T00:44:25.686Z,28.07
2023-04-10T00:46:53.703Z,28.80
2023-04-10T00:49:21.912Z,28.47
2023-04-10T00:51:49.710Z,26.83
2023-04-10T00:54:19.512Z,27.07
2023-04-10T00:56:48.083Z,29.10
2023-04-10T00:59:15.884Z,32.30
2023-04-10T01:01:44.721Z,29.80
2023-04-10T01:04:14.487Z,29.10
2023-04-10T01:06:54.516Z,29.23
2023-04-10T01:09:35.602Z,29.70
2023-04-10T01:12:12.385Z,27.87
2023-04-10T01:14:48.372Z,28.77
2023-04-10T01:17:19.760Z,27.17
2023-04-10T01:20:01.163Z,29.60
2023-04-10T01:22:35.910Z,29.90
2023-04-10T01:25:20.855Z,27.43
2023-04-10T01:28:01.057Z,28.17
2023-04-10T01:30:31.289Z,27.80
2023-04-10T01:33:01.038Z,28.27
2023-04-10T01:35:30.135Z,28.70
2023-04-10T01:37:59.048Z,30.40
2023-04-10T01:40:27.933Z,27.63
2023-04-10T01:42:57.518Z,27.43
2023-04-10T01:45:34.791Z,27.40
2023-04-10T01:48:02.940Z,28.10
2023-04-10T01:50:31.389Z,29.60
2023-04-10T01:53:00.293Z,27.50
2023-04-10T01:55:29.288Z,27.60
2023-04-10T01:58:03.130Z,27.30
2023-04-10T02:00:31.283Z,25.83
2023-04-10T02:03:00.762Z,28.30
2023-04-10T02:05:34.569Z,30.20
2023-04-10T02:08:06.877Z,26.20
2023-04-10T02:10:40.492Z,27.00
2023-04-10T02:13:09.552Z,28.03
2023-04-10T02:15:38.093Z,26.57
2023-04-10T02:18:08.296Z,28.10
2023-04-10T02:20:36.225Z,27.77
2023-04-10T02:23:05.534Z,28.97
2023-04-10T02:25:34.002Z,26.60
2023-04-10T02:28:05.257Z,27.87
2023-04-10T02:30:33.910Z,27.93
2023-04-10T02:33:02.088Z,27.40
2023-04-10T02:35:34.305Z,28.13
2023-04-10T02:38:04.347Z,27.70
2023-04-10T02:40:36.312Z,28.57
2023-04-10T02:43:15.033Z,26.93
2023-04-10T02:45:43.800Z,29.67
2023-04-10T02:48:14.779Z,26.37
2023-04-10T02:50:46.669Z,26.27
2023-04-10T02:53:15.468Z,29.40
2023-04-10T02:55:43.302Z,27.50
2023-04-10T02:58:13.185Z,28.80
2023-04-10T03:00:42.773Z,28.70
2023-04-10T03:03:16.601Z,26.03
2023-04-10T03:05:50.497Z,28.40
2023-04-10T03:08:23.958Z,30.60
2023-04-10T03:10:51.815Z,26.87
2023-04-10T03:13:19.787Z,27.93
2023-04-10T03:15:47.982Z,27.97
2023-04-10T03:18:15.911Z,27.60
2023-04-10T03:20:45.799Z,27.40
2023-04-10T03:23:14.993Z,25.63
2023-04-10T03:25:43.407Z,30.97
2023-04-10T03:28:12.201Z,28.53
2023-04-10T03:30:40.003Z,55.07
2023-04-10T03:33:07.732Z,29.53
2023-04-10T03:35:35.368Z,27.90
2023-04-10T03:38:03.454Z,27.17
2023-04-10T03:40:34.176Z,27.07
2023-04-10T03:43:01.921Z,28.23
2023-04-10T03:45:32.251Z,26.20
2023-04-10T03:48:01.177Z,30.80
2023-04-10T03:50:38.284Z,30.50
2023-04-10T03:53:06.664Z,29.93
2023-04-10T03:55:36.919Z,28.17
2023-04-10T03:58:05.627Z,27.60
2023-04-10T04:00:33.983Z,27.53
2023-04-10T04:03:20.733Z,26.27
2023-04-10T04:06:03.448Z,25.20
2023-04-10T04:08:38.631Z,28.10
2023-04-10T04:11:13.569Z,27.20
2023-04-10T04:13:55.336Z,30.17
2023-04-10T04:16:49.678Z,28.13
2023-04-10T04:19:31.799Z,29.70
2023-04-10T04:22:34.630Z,29.70
2023-04-10T04:25:14.628Z,29.73
2023-04-10T04:28:05.778Z,27.97
2023-04-10T04:30:38.771Z,28.90
2023-04-10T04:33:22.992Z,27.10
2023-04-10T04:35:57.624Z,29.17
2023-04-10T04:38:40.364Z,27.30
2023-04-10T04:41:26.736Z,29.30
2023-04-10T04:44:25.085Z,27.67
2023-04-10T04:47:04.269Z,28.47
2023-04-10T04:49:42.095Z,29.27
2023-04-10T04:52:20.560Z,27.90
2023-04-10T04:55:02.981Z,27.83
2023-04-10T04:57:49.521Z,27.10
2023-04-10T05:00:41.939Z,28.70
2023-04-10T05:03:36.411Z,27.93
2023-04-10T05:06:22.354Z,27.23
2023-04-10T05:09:08.714Z,28.50
2023-04-10T05:12:03.856Z,27.27
2023-04-10T05:15:10.804Z,29.70
2023-04-10T05:17:58.377Z,27.23
2023-04-10T05:20:44.574Z,27.87
2023-04-10T05:23:12.408Z,26.87
2023-04-10T05:25:56.916Z,27.60
2023-04-10T05:28:49.801Z,26.30
2023-04-10T05:31:35.524Z,28.40
2023-04-10T05:34:17.048Z,28.23
2023-04-10T05:37:08.873Z,27.73
2023-04-10T05:40:00.248Z,24.27
2023-04-10T05:42:27.872Z,28.33
2023-04-10T05:45:15.255Z,28.37
2023-04-10T05:48:06.433Z,25.50
2023-04-10T05:50:58.510Z,26.13
2023-04-10T05:53:52.135Z,24.07
2023-04-10T05:56:38.168Z,27.07
2023-04-10T05:59:21.871Z,25.97
2023-04-10T06:02:20.187Z,23.60
2023-04-10T06:04:48.420Z,24.53
2023-04-10T06:07:17.789Z,26.87
2023-04-10T06:09:45.318Z,26.07
2023-04-10T06:12:12.876Z,25.00
2023-04-10T06:14:41.715Z,27.60
2023-04-10T06:17:09.436Z,25.30
2023-04-10T06:19:37.038Z,26.17
2023-04-10T06:22:04.643Z,27.10
2023-04-10T06:24:33.714Z,26.07
2023-04-10T06:27:01.631Z,25.60
2023-04-10T06:29:29.217Z,24.67
2023-04-10T06:31:57.673Z,25.30
2023-04-10T06:34:25.419Z,24.47
2023-04-10T06:37:02.002Z,24.87
2023-04-10T06:39:29.588Z,22.93
2023-04-10T06:41:58.439Z,23.80
2023-04-10T06:44:40.322Z,23.57
2023-04-10T06:47:09.080Z,24.97
2023-04-10T06:49:36.693Z,24.53
2023-04-10T06:52:04.464Z,26.27
2023-04-10T06:54:31.993Z,24.20
2023-04-10T06:57:01.929Z,24.30
2023-04-10T06:59:29.647Z,25.40
2023-04-10T07:01:57.183Z,24.03
2023-04-10T07:04:24.946Z,24.20
2023-04-10T07:06:53.589Z,24.57
2023-04-10T07:09:21.206Z,23.33
2023-04-10T07:11:49.198Z,26.00
2023-04-10T07:14:18.167Z,24.97
2023-04-10T07:16:46.019Z,23.90
2023-04-10T07:19:13.676Z,24.50
2023-04-10T07:21:41.795Z,24.03
2023-04-10T07:24:09.407Z,23.60
2023-04-10T07:26:36.929Z,24.40
2023-04-10T07:29:04.476Z,24.80
2023-04-10T07:31:33.458Z,22.47
2023-04-10T07:34:01.041Z,23.17
2023-04-10T07:36:28.738Z,23.30
2023-04-10T07:38:56.588Z,23.53
2023-04-10T07:41:24.235Z,22.03
2023-04-10T07:43:51.863Z,24.23
2023-04-10T07:46:19.552Z,22.90
2023-04-10T07:48:49.516Z,23.30
2023-04-10T07:51:17.089Z,22.90
2023-04-10T07:53:44.644Z,22.60
2023-04-10T07:56:17.149Z,23.10
2023-04-10T07:58:44.804Z,23.40
2023-04-10T08:01:12.492Z,22.53
2023-04-10T08:03:41.399Z,23.00
2023-04-10T08:06:16.604Z,22.07
2023-04-10T08:08:44.218Z,21.53
2023-04-10T08:11:24.654Z,21.20
2023-04-10T08:13:52.502Z,21.70
2023-04-10T08:16:23.405Z,21.40
2023-04-10T08:18:51.661Z,21.33
2023-04-10T08:21:20.860Z,19.67
2023-04-10T08:23:48.472Z,21.03
2023-04-10T08:26:16.074Z,20.80
2023-04-10T08:28:47.117Z,20.53
2023-04-10T08:31:14.798Z,21.70
2023-04-10T08:33:42.643Z,20.53
2023-04-10T08:36:10.486Z,20.93
2023-04-10T08:38:39.791Z,18.50
2023-04-10T08:41:07.764Z,20.13
2023-04-10T08:43:35.532Z,20.47
2023-04-10T08:46:03.336Z,21.00
2023-04-10T08:48:33.441Z,21.80
2023-04-10T08:51:02.464Z,20.03
2023-04-10T08:53:32.375Z,19.10
2023-04-10T08:56:03.919Z,19.40
2023-04-10T08:58:32.097Z,18.47
2023-04-10T09:01:00.218Z,17.33
2023-04-10T09:03:28.558Z,16.67
2023-04-10T09:05:56.440Z,18.90
2023-04-10T09:08:23.905Z,18.80
2023-04-10T09:10:53.923Z,18.80
2023-04-10T09:13:38.770Z,19.27
2023-04-10T09:16:07.143Z,17.57
2023-04-10T09:18:42.663Z,18.20
2023-04-10T09:21:11.671Z,18.63
2023-04-10T09:23:39.243Z,17.47
2023-04-10T09:26:23.786Z,17.80
2023-04-10T09:28:58.959Z,17.67
2023-04-10T09:31:34.777Z,17.27
2023-04-10T09:34:10.089Z,18.90
2023-04-10T09:36:38.368Z,16.60
2023-04-10T09:39:06.846Z,16.40
2023-04-10T09:41:34.643Z,17.00
2023-04-10T09:44:10.707Z,17.17
2023-04-10T09:46:38.372Z,16.40
2023-04-10T09:49:07.324Z,15.03
2023-04-10T09:51:36.591Z,14.70
2023-04-10T09:54:05.048Z,15.93
2023-04-10T09:56:35.381Z,14.57
2023-04-10T09:59:04.721Z,13.40
2023-04-10T10:01:35.228Z,13.70
2023-04-10T10:04:04.361Z,12.73
2023-04-10T10:06:33.027Z,15.87
2023-04-10T10:09:03.713Z,12.47
2023-04-10T10:11:32.330Z,11.80
2023-04-10T10:14:01.259Z,12.30
2023-04-10T10:16:32.010Z,11.30
2023-04-10T10:19:07.040Z,11.50
2023-04-10T10:21:35.073Z,12.60
2023-04-10T10:24:04.151Z,12.30
2023-04-10T10:26:34.762Z,12.00
2023-04-10T10:29:04.561Z,12.67
2023-04-10T10:31:33.975Z,11.50
2023-04-10T10:34:04.757Z,12.90
2023-04-10T10:36:33.150Z,13.13
2023-04-10T10:39:12.418Z,12.90
2023-04-10T10:41:44.788Z,12.20
2023-04-10T10:44:16.745Z,12.20
2023-04-10T10:46:45.906Z,10.80
2023-04-10T10:49:14.761Z,9.77
2023-04-10T10:51:47.690Z,8.97
2023-04-10T10:54:32.213Z,9.50
2023-04-10T10:56:59.901Z,9.07
2023-04-10T10:59:56.514Z,8.23
2023-04-10T11:02:24.502Z,8.80
2023-04-10T11:04:53.496Z,8.50
2023-04-10T11:07:21.636Z,7.77
2023-04-10T11:09:51.398Z,8.83
2023-04-10T11:12:22.213Z,8.60
2023-04-10T11:15:00.515Z,8.00
2023-04-10T11:17:49.995Z,9.43
2023-04-10T11:20:21.732Z,10.33
2023-04-10T11:23:10.997Z,9.37
2023-04-10T11:25:49.234Z,8.80
2023-04-10T11:28:35.496Z,8.67
2023-04-10T11:31:15.653Z,9.60
2023-04-10T11:33:43.471Z,8.93
2023-04-10T11:36:15.104Z,8.80
2023-04-10T11:38:42.677Z,7.83
2023-04-10T11:41:10.352Z,7.47
2023-04-10T11:43:37.915Z,7.40
2023-04-10T11:46:08.002Z,7.03
2023-04-10T11:48:36.801Z,7.40
2023-04-10T11:51:13.546Z,7.63
2023-04-10T11:53:41.417Z,7.30
2023-04-10T11:56:20.304Z,7.33
2023-04-10T11:58:50.136Z,8.67
2023-04-10T12:01:17.922Z,7.70
2023-04-10T12:03:46.129Z,7.30
2023-04-10T12:06:16.148Z,6.40
2023-04-10T12:08:46.154Z,7.53
2023-04-10T12:11:14.426Z,7.70
2023-04-10T12:13:41.936Z,7.40
2023-04-10T12:16:11.042Z,6.20
2023-04-10T12:18:39.298Z,7.20
2023-04-10T12:21:08.633Z,6.90
2023-04-10T12:23:40.090Z,6.70
2023-04-10T12:26:11.729Z,7.07
2023-04-10T12:28:40.566Z,7.23
2023-04-10T12:31:08.745Z,7.03
2023-04-10T12:33:36.797Z,6.30
2023-04-10T12:36:04.714Z,6.20
2023-04-10T12:38:45.031Z,6.67
2023-04-10T12:41:13.018Z,6.13
2023-04-10T12:43:41.899Z,6.33
2023-04-10T12:46:10.824Z,6.50
2023-04-10T12:48:38.442Z,6.00
2023-04-10T12:51:06.219Z,5.20
2023-04-10T12:53:45.662Z,6.50
2023-04-10T12:56:14.621Z,5.53
2023-04-10T12:58:42.631Z,6.87
2023-04-10T13:01:10.571Z,5.40
2023-04-10T13:03:38.707Z,6.60
2023-04-10T13:06:07.897Z,5.00
2023-04-10T13:08:35.435Z,5.00
2023-04-10T13:11:04.489Z,4.43
2023-04-10T13:13:32.612Z,5.57
2023-04-10T13:16:00.473Z,6.07
2023-04-10T13:18:28.078Z,5.40
2023-04-10T13:20:55.583Z,5.37
2023-04-10T13:23:23.112Z,5.27
2023-04-10T13:25:51.016Z,4.60
2023-04-10T13:28:21.441Z,5.80
2023-04-10T13:30:49.015Z,5.23
2023-04-10T13:33:16.502Z,4.80
2023-04-10T13:35:44.031Z,4.10
2023-04-10T13:38:12.205Z,4.20
2023-04-10T13:40:39.709Z,4.40
2023-04-10T13:43:07.203Z,3.93
2023-04-10T13:45:36.083Z,4.80
2023-04-10T13:48:03.852Z,4.57
2023-04-10T13:50:31.467Z,4.50
2023-04-10T13:52:58.930Z,4.13
2023-04-10T13:55:26.496Z,4.80
2023-04-10T13:57:53.966Z,5.00
2023-04-10T14:00:22.025Z,5.17
2023-04-10T14:02:51.478Z,5.50
2023-04-10T14:05:19.338Z,4.63
2023-04-10T14:07:46.812Z,5.70
2023-04-10T14:10:14.315Z,6.90
2023-04-10T14:12:41.807Z,6.63
2023-04-10T14:15:10.284Z,6.07
2023-04-10T14:17:37.809Z,6.83
2023-04-10T14:20:11.185Z,6.07
2023-04-10T14:22:38.704Z,6.33
2023-04-10T14:25:12.960Z,7.17
2023-04-10T14:27:41.777Z,6.53
2023-04-10T14:30:10.177Z,6.00
2023-04-10T14:32:37.777Z,6.87
2023-04-10T14:35:07.888Z,6.10
2023-04-10T14:37:35.500Z,5.67
2023-04-10T14:40:04.782Z,7.30
2023-04-10T14:42:32.356Z,14.93
2023-04-10T14:44:59.913Z,8.33
2023-04-10T14:47:27.497Z,7.17
2023-04-10T14:49:55.071Z,8.10
2023-04-10T14:52:24.085Z,8.23
2023-04-10T14:54:51.643Z,7.33
2023-04-10T14:57:19.237Z,7.70
2023-04-10T14:59:46.727Z,8.03
2023-04-10T15:02:14.245Z,6.30
2023-04-10T15:04:41.860Z,7.90
2023-04-10T15:07:09.748Z,6.20
2023-04-10T15:09:38.621Z,6.37
2023-04-10T15:12:06.347Z,6.17
2023-04-10T15:14:33.972Z,5.83
2023-04-10T15:17:01.569Z,6.50
2023-04-10T15:19:29.272Z,5.53
2023-04-10T15:21:56.972Z,5.70
2023-04-10T15:24:24.491Z,6.20
2023-04-10T15:26:53.870Z,5.63
2023-04-10T15:29:21.351Z,5.80
2023-04-10T15:31:51.022Z,5.23
2023-04-10T15:34:19.010Z,5.33
2023-04-10T15:36:46.817Z,6.77
2023-04-10T15:39:14.277Z,5.70
2023-04-10T15:41:41.802Z,6.37
2023-04-10T15:44:10.642Z,5.60
2023-04-10T15:46:38.140Z,6.47
2023-04-10T15:49:05.887Z,5.20
2023-04-10T15:51:33.342Z,5.93
2023-04-10T15:54:03.036Z,5.90
2023-04-10T15:56:30.534Z,5.20
2023-04-10T15:58:58.049Z,5.33
2023-04-10T16:01:26.912Z,5.30
2023-04-10T16:03:54.727Z,5.83
2023-04-10T16:06:25.744Z,5.00
2023-04-10T16:08:53.627Z,5.90
2023-04-10T16:11:21.377Z,5.00
2023-04-10T16:13:49.049Z,5.60
2023-04-10T16:16:17.024Z,5.40
2023-04-10T16:18:46.457Z,5.83
2023-04-10T16:21:14.926Z,4.40
2023-04-10T16:23:42.407Z,5.10
2023-04-10T16:26:10.186Z,5.67
2023-04-10T16:28:37.647Z,5.63
2023-04-10T16:31:05.493Z,6.60
2023-04-10T16:33:33.023Z,6.53
2023-04-10T16:36:04.518Z,6.10
2023-04-10T16:38:34.295Z,5.93
2023-04-10T16:41:02.886Z,6.18
2023-04-10T16:43:30.442Z,6.03
2023-04-10T16:45:59.207Z,7.03
2023-04-10T16:48:26.853Z,6.73
2023-04-10T16:50:54.361Z,6.90
2023-04-10T16:53:23.242Z,6.20
2023-04-10T16:55:57.615Z,7.20
2023-04-10T16:58:25.244Z,7.10
2023-04-10T17:00:52.981Z,6.63
2023-04-10T17:03:20.515Z,6.40
2023-04-10T17:05:47.994Z,6.90
2023-04-10T17:08:15.666Z,7.23
2023-04-10T17:10:44.622Z,6.40
2023-04-10T17:13:12.130Z,6.17
2023-04-10T17:15:39.651Z,5.73
2023-04-10T17:18:07.242Z,7.70
2023-04-10T17:20:36.499Z,7.50
2023-04-10T17:23:04.053Z,6.90
2023-04-10T17:25:31.631Z,7.20
2023-04-10T17:28:00.530Z,6.73
2023-04-10T17:30:28.328Z,6.77
2023-04-10T17:32:55.953Z,7.03
2023-04-10T17:35:23.886Z,5.83
2023-04-10T17:37:51.411Z,6.57
2023-04-10T17:40:19.346Z,6.97
2023-04-10T17:42:47.135Z,7.27
2023-04-10T17:45:16.291Z,7.27
2023-04-10T17:47:43.920Z,6.60
2023-04-10T17:50:11.938Z,7.20
2023-04-10T17:52:39.470Z,7.47
2023-04-10T17:55:08.254Z,7.60
2023-04-10T17:57:35.840Z,7.33
2023-04-10T18:00:04.059Z,6.33
2023-04-10T18:02:34.064Z,6.60
2023-04-10T18:05:03.421Z,7.53
2023-04-10T18:07:31.197Z,6.80
2023-04-10T18:09:58.841Z,6.80
2023-04-10T18:12:26.355Z,7.10
2023-04-10T18:14:53.962Z,8.00
2023-04-10T18:17:21.524Z,7.03
2023-04-10T18:19:50.989Z,7.90
2023-04-10T18:22:18.694Z,7.70
2023-04-10T18:24:47.185Z,14.70
2023-04-10T18:27:14.880Z,8.03
2023-04-10T18:29:43.345Z,8.40
2023-04-10T18:32:10.847Z,8.63
2023-04-10T18:34:38.339Z,7.33
2023-04-10T18:37:09.576Z,7.70
2023-04-10T18:39:38.206Z,8.20
2023-04-10T18:42:10.655Z,7.53
2023-04-10T18:44:38.324Z,8.00
2023-04-10T18:47:06.159Z,8.40
2023-04-10T18:49:33.767Z,8.53
2023-04-10T18:52:01.721Z,7.90
2023-04-10T18:54:31.859Z,7.90
2023-04-10T18:56:59.564Z,8.10
2023-04-10T18:59:31.995Z,8.10
2023-04-10T19:01:59.636Z,7.87
2023-04-10T19:04:27.393Z,7.77
2023-04-10T19:06:55.012Z,9.10
2023-04-10T19:09:22.561Z,8.57
2023-04-10T19:11:51.606Z,8.37
2023-04-10T19:14:19.249Z,8.10
2023-04-10T19:16:46.829Z,8.93
2023-04-10T19:19:14.304Z,8.77
2023-04-10T19:21:41.776Z,8.43
2023-04-10T19:24:09.316Z,7.90
2023-04-10T19:26:37.767Z,9.77
2023-04-10T19:29:08.812Z,10.43
2023-04-10T19:31:36.336Z,8.17
2023-04-10T19:34:09.004Z,8.30
2023-04-10T19:36:37.272Z,7.77
2023-04-10T19:39:05.495Z,9.53
2023-04-10T19:41:32.985Z,8.57
2023-04-10T19:44:00.675Z,8.27
2023-04-10T19:46:29.672Z,8.60
2023-04-10T19:48:57.210Z,9.10
2023-04-10T19:51:24.772Z,8.17
2023-04-10T19:53:52.604Z,8.33
2023-04-10T19:56:21.024Z,8.77
2023-04-10T19:58:48.625Z,8.13
2023-04-10T20:01:16.220Z,8.93
2023-04-10T20:03:45.409Z,9.00
2023-04-10T20:06:13.067Z,8.80
2023-04-10T20:08:40.705Z,8.50
2023-04-10T20:11:09.346Z,7.83
2023-04-10T20:13:36.909Z,8.67
2023-04-10T20:16:04.645Z,7.37
2023-04-10T20:18:32.818Z,8.73
2023-04-10T20:21:01.701Z,8.43
2023-04-10T20:23:29.598Z,8.93
2023-04-10T20:25:57.097Z,8.20
2023-04-10T20:28:26.250Z,7.80
2023-04-10T20:30:53.789Z,8.23
2023-04-10T20:33:21.318Z,8.67
2023-04-10T20:35:48.922Z,7.80
2023-04-10T20:38:18.703Z,7.83
2023-04-10T20:40:46.342Z,8.30
2023-04-10T20:43:14.122Z,8.07
2023-04-10T20:45:42.174Z,8.30
2023-04-10T20:48:09.865Z,8.43
2023-04-10T20:50:37.883Z,7.57
2023-04-10T20:53:05.426Z,9.00
2023-04-10T20:55:34.910Z,7.17
2023-04-10T20:58:02.417Z,8.40
2023-04-10T21:00:30.859Z,8.23
2023-04-10T21:02:58.729Z,7.30
2023-04-10T21:05:26.461Z,6.83
2023-04-10T21:07:54.252Z,8.10
2023-04-10T21:10:22.175Z,7.90
2023-04-10T21:12:51.018Z,8.03
2023-04-10T21:15:18.745Z,7.73
2023-04-10T21:17:46.312Z,7.67
2023-04-10T21:20:14.084Z,8.03
2023-04-10T21:22:41.589Z,7.87
2023-04-10T21:25:10.376Z,7.50
2023-04-10T21:27:37.893Z,7.40
2023-04-10T21:30:08.303Z,8.17
2023-04-10T21:32:35.807Z,6.77
2023-04-10T21:35:03.375Z,6.53
2023-04-10T21:37:30.918Z,6.70
2023-04-10T21:39:58.586Z,6.10
2023-04-10T21:42:26.182Z,6.97
2023-04-10T21:44:54.438Z,7.70
2023-04-10T21:47:23.363Z,10.50
2023-04-10T21:49:51.651Z,9.20
2023-04-10T21:52:19.109Z,6.53
2023-04-10T21:54:46.638Z,6.53
2023-04-10T21:57:14.225Z,4.70
2023-04-10T21:59:41.733Z,5.10
2023-04-10T22:02:10.672Z,5.30
2023-04-10T22:04:47.925Z,4.20
2023-04-10T22:07:21.461Z,4.93
2023-04-10T22:09:49.012Z,5.03
2023-04-10T22:12:16.656Z,4.77
2023-04-10T22:14:44.183Z,4.60
2023-04-10T22:17:11.899Z,4.17
2023-04-10T22:19:41.004Z,4.17
2023-04-10T22:22:08.750Z,4.93
2023-04-10T22:24:36.263Z,4.90
2023-04-10T22:27:03.860Z,4.20
2023-04-10T22:29:31.477Z,4.50
2023-04-10T22:31:58.980Z,4.03
2023-04-10T22:34:26.512Z,4.60
2023-04-10T22:36:55.376Z,3.83
2023-04-10T22:39:22.854Z,4.37
2023-04-10T22:41:50.553Z,4.40
2023-04-10T22:44:18.210Z,4.97
2023-04-10T22:46:48.118Z,5.20
2023-04-10T22:49:17.018Z,4.37
2023-04-10T22:51:45.940Z,5.20
2023-04-10T22:54:16.086Z,5.50
2023-04-10T22:56:44.148Z,5.30
2023-04-10T22:59:12.051Z,5.23
2023-04-10T23:01:41.626Z,5.07
2023-04-10T23:04:09.529Z,5.70
2023-04-10T23:06:37.438Z,5.40
2023-04-10T23:09:05.262Z,6.67
2023-04-10T23:11:37.152Z,5.67
2023-04-10T23:14:04.900Z,5.47
2023-04-10T23:16:32.917Z,5.40
2023-04-10T23:19:03.534Z,5.03
2023-04-10T23:21:32.534Z,4.97
2023-04-10T23:24:00.397Z,3.57
2023-04-10T23:26:31.008Z,5.10
2023-04-10T23:29:00.395Z,5.53
2023-04-10T23:31:28.041Z,5.03
2023-04-10T23:33:55.773Z,5.93
2023-04-10T23:36:23.617Z,6.93
2023-04-10T23:38:51.539Z,7.57
2023-04-10T23:41:22.390Z,5.70
2023-04-10T23:43:49.992Z,5.70
2023-04-10T23:46:19.082Z,5.27
2023-04-10T23:48:47.737Z,5.20
2023-04-10T23:51:15.436Z,4.77
2023-04-10T23:53:43.299Z,5.40
2023-04-10T23:56:11.402Z,5.83
2023-04-10T23:58:38.988Z,6.43
